sensor_id;sensor_type;location;lat;lon;timestamp;temperature;humidity
64833;HTU21D;51290;45.060;38.948;2023-06-14T00:02:12;19.17;78.56
64833;HTU21D;51290;45.060;38.948;2023-06-14T00:04:38;19.18;78.50
64833;HTU21D;51290;45.060;38.948;2023-06-14T00:07:07;19.22;78.52
64833;HTU21D;51290;45.060;38.948;2023-06-14T00:09:35;19.23;78.48
64833;HTU21D;51290;45.060;38.948;2023-06-14T00:12:02;19.25;78.49
64833;HTU21D;51290;45.060;38.948;2023-06-14T00:14:28;19.27;78.52
64833;HTU21D;51290;45.060;38.948;2023-06-14T00:16:54;19.28;78.55
64833;HTU21D;51290;45.060;38.948;2023-06-14T00:19:25;19.31;78.55
64833;HTU21D;51290;45.060;38.948;2023-06-14T00:21:51;19.32;78.52
64833;HTU21D;51290;45.060;38.948;2023-06-14T00:24:19;19.33;78.52
64833;HTU21D;51290;45.060;38.948;2023-06-14T00:26:45;19.37;78.66
64833;HTU21D;51290;45.060;38.948;2023-06-14T00:29:11;19.40;78.72
64833;HTU21D;51290;45.060;38.948;2023-06-14T00:31:37;19.44;78.72
64833;HTU21D;51290;45.060;38.948;2023-06-14T00:34:03;19.47;78.78
64833;HTU21D;51290;45.060;38.948;2023-06-14T00:36:31;19.51;78.73
64833;HTU21D;51290;45.060;38.948;2023-06-14T00:38:57;19.51;78.64
64833;HTU21D;51290;45.060;38.948;2023-06-14T00:41:23;19.51;78.61
64833;HTU21D;51290;45.060;38.948;2023-06-14T00:43:50;19.51;78.66
64833;HTU21D;51290;45.060;38.948;2023-06-14T00:46:16;19.54;78.79
64833;HTU21D;51290;45.060;38.948;2023-06-14T00:48:42;19.57;78.92
64833;HTU21D;51290;45.060;38.948;2023-06-14T00:51:08;19.59;78.95
64833;HTU21D;51290;45.060;38.948;2023-06-14T00:53:34;19.61;78.88
64833;HTU21D;51290;45.060;38.948;2023-06-14T00:56:01;19.61;78.79
64833;HTU21D;51290;45.060;38.948;2023-06-14T00:58:28;19.59;78.75
64833;HTU21D;51290;45.060;38.948;2023-06-14T01:00:54;19.57;78.71
64833;HTU21D;51290;45.060;38.948;2023-06-14T01:03:20;19.54;78.74
64833;HTU21D;51290;45.060;38.948;2023-06-14T01:05:53;19.52;78.86
64833;HTU21D;51290;45.060;38.948;2023-06-14T01:08:31;19.51;78.99
64833;HTU21D;51290;45.060;38.948;2023-06-14T01:11:10;19.52;79.08
64833;HTU21D;51290;45.060;38.948;2023-06-14T01:13:39;19.54;79.08
64833;HTU21D;51290;45.060;38.948;2023-06-14T01:16:07;19.55;79.15
64833;HTU21D;51290;45.060;38.948;2023-06-14T01:18:34;19.56;79.11
64833;HTU21D;51290;45.060;38.948;2023-06-14T01:21:01;19.56;79.01
64833;HTU21D;51290;45.060;38.948;2023-06-14T01:23:32;19.53;79.05
64833;HTU21D;51290;45.060;38.948;2023-06-14T01:26:00;19.54;79.17
64833;HTU21D;51290;45.060;38.948;2023-06-14T01:28:31;19.55;79.25
64833;HTU21D;51290;45.060;38.948;2023-06-14T01:31:00;19.55;79.24
64833;HTU21D;51290;45.060;38.948;2023-06-14T01:33:31;19.57;79.43
64833;HTU21D;51290;45.060;38.948;2023-06-14T01:35:59;19.61;79.54
64833;HTU21D;51290;45.060;38.948;2023-06-14T01:38:26;19.66;79.60
64833;HTU21D;51290;45.060;38.948;2023-06-14T01:40:54;19.72;79.60
64833;HTU21D;51290;45.060;38.948;2023-06-14T01:43:21;19.77;79.66
64833;HTU21D;51290;45.060;38.948;2023-06-14T01:45:48;19.85;79.70
64833;HTU21D;51290;45.060;38.948;2023-06-14T01:48:18;19.86;79.63
64833;HTU21D;51290;45.060;38.948;2023-06-14T01:50:44;19.83;79.57
64833;HTU21D;51290;45.060;38.948;2023-06-14T01:53:10;19.79;79.66
64833;HTU21D;51290;45.060;38.948;2023-06-14T01:55:37;19.72;79.79
64833;HTU21D;51290;45.060;38.948;2023-06-14T01:58:06;19.62;79.77
64833;HTU21D;51290;45.060;38.948;2023-06-14T02:00:32;19.52;79.86
64833;HTU21D;51290;45.060;38.948;2023-06-14T02:02:58;19.41;79.98
64833;HTU21D;51290;45.060;38.948;2023-06-14T02:05:26;19.31;80.21
64833;HTU21D;51290;45.060;38.948;2023-06-14T02:07:53;19.25;80.36
64833;HTU21D;51290;45.060;38.948;2023-06-14T02:10:20;19.21;80.48
64833;HTU21D;51290;45.060;38.948;2023-06-14T02:12:46;19.21;80.59
64833;HTU21D;51290;45.060;38.948;2023-06-14T02:15:12;19.20;80.72
64833;HTU21D;51290;45.060;38.948;2023-06-14T02:17:48;19.18;80.85
64833;HTU21D;51290;45.060;38.948;2023-06-14T02:20:16;19.17;80.92
64833;HTU21D;51290;45.060;38.948;2023-06-14T02:22:43;19.18;80.98
64833;HTU21D;51290;45.060;38.948;2023-06-14T02:25:09;19.18;81.03
64833;HTU21D;51290;45.060;38.948;2023-06-14T02:27:35;19.22;81.11
64833;HTU21D;51290;45.060;38.948;2023-06-14T02:30:03;19.24;81.14
64833;HTU21D;51290;45.060;38.948;2023-06-14T02:32:55;19.25;81.14
64833;HTU21D;51290;45.060;38.948;2023-06-14T02:35:22;19.29;81.20
64833;HTU21D;51290;45.060;38.948;2023-06-14T02:37:52;19.29;81.25
64833;HTU21D;51290;45.060;38.948;2023-06-14T02:40:20;19.33;81.33
64833;HTU21D;51290;45.060;38.948;2023-06-14T02:42:46;19.37;81.44
64833;HTU21D;51290;45.060;38.948;2023-06-14T02:45:12;19.38;81.51
64833;HTU21D;51290;45.060;38.948;2023-06-14T02:47:38;19.40;81.59
64833;HTU21D;51290;45.060;38.948;2023-06-14T02:50:05;19.43;81.66
64833;HTU21D;51290;45.060;38.948;2023-06-14T02:52:33;19.46;81.69
64833;HTU21D;51290;45.060;38.948;2023-06-14T02:55:00;19.54;81.72
64833;HTU21D;51290;45.060;38.948;2023-06-14T02:57:28;19.59;81.72
64833;HTU21D;51290;45.060;38.948;2023-06-14T02:59:54;19.66;81.70
64833;HTU21D;51290;45.060;38.948;2023-06-14T03:02:21;19.71;81.65
64833;HTU21D;51290;45.060;38.948;2023-06-14T03:04:47;19.79;81.64
64833;HTU21D;51290;45.060;38.948;2023-06-14T03:07:16;19.84;81.68
64833;HTU21D;51290;45.060;38.948;2023-06-14T03:09:46;19.91;81.68
64833;HTU21D;51290;45.060;38.948;2023-06-14T03:12:13;19.98;81.67
64833;HTU21D;51290;45.060;38.948;2023-06-14T03:14:39;20.03;81.70
64833;HTU21D;51290;45.060;38.948;2023-06-14T03:17:07;20.11;81.68
64833;HTU21D;51290;45.060;38.948;2023-06-14T03:19:35;20.17;81.68
64833;HTU21D;51290;45.060;38.948;2023-06-14T03:22:03;20.19;81.68
64833;HTU21D;51290;45.060;38.948;2023-06-14T03:24:31;20.22;81.78
64833;HTU21D;51290;45.060;38.948;2023-06-14T03:27:06;20.25;81.88
64833;HTU21D;51290;45.060;38.948;2023-06-14T03:29:33;20.31;81.98
64833;HTU21D;51290;45.060;38.948;2023-06-14T03:32:01;20.40;82.08
64833;HTU21D;51290;45.060;38.948;2023-06-14T03:34:40;20.49;82.01
64833;HTU21D;51290;45.060;38.948;2023-06-14T03:37:11;20.60;81.95
64833;HTU21D;51290;45.060;38.948;2023-06-14T03:39:37;20.71;81.97
64833;HTU21D;51290;45.060;38.948;2023-06-14T03:42:04;20.81;81.95
64833;HTU21D;51290;45.060;38.948;2023-06-14T03:44:31;20.94;81.89
64833;HTU21D;51290;45.060;38.948;2023-06-14T03:46:59;21.04;81.78
64833;HTU21D;51290;45.060;38.948;2023-06-14T03:49:26;21.13;81.72
64833;HTU21D;51290;45.060;38.948;2023-06-14T03:51:52;21.21;81.70
64833;HTU21D;51290;45.060;38.948;2023-06-14T03:54:22;21.28;81.58
64833;HTU21D;51290;45.060;38.948;2023-06-14T03:56:50;21.31;81.55
64833;HTU21D;51290;45.060;38.948;2023-06-14T03:59:16;21.36;81.57
64833;HTU21D;51290;45.060;38.948;2023-06-14T04:01:42;21.40;81.63
64833;HTU21D;51290;45.060;38.948;2023-06-14T04:04:10;21.45;81.59
64833;HTU21D;51290;45.060;38.948;2023-06-14T04:06:36;21.50;81.50
64833;HTU21D;51290;45.060;38.948;2023-06-14T04:09:04;21.52;81.47
64833;HTU21D;51290;45.060;38.948;2023-06-14T04:11:30;21.55;81.45
64833;HTU21D;51290;45.060;38.948;2023-06-14T04:13:58;21.59;81.41
64833;HTU21D;51290;45.060;38.948;2023-06-14T04:16:26;21.63;81.26
64833;HTU21D;51290;45.060;38.948;2023-06-14T04:18:52;21.67;81.23
64833;HTU21D;51290;45.060;38.948;2023-06-14T04:21:18;21.76;81.20
64833;HTU21D;51290;45.060;38.948;2023-06-14T04:23:45;21.88;81.04
64833;HTU21D;51290;45.060;38.948;2023-06-14T04:26:14;21.99;80.79
64833;HTU21D;51290;45.060;38.948;2023-06-14T04:28:42;22.12;80.58
64833;HTU21D;51290;45.060;38.948;2023-06-14T04:31:15;22.25;80.37
64833;HTU21D;51290;45.060;38.948;2023-06-14T04:33:42;22.35;80.18
64833;HTU21D;51290;45.060;38.948;2023-06-14T04:36:16;22.48;80.03
64833;HTU21D;51290;45.060;38.948;2023-06-14T04:38:46;22.57;79.80
64833;HTU21D;51290;45.060;38.948;2023-06-14T04:41:13;22.64;79.58
64833;HTU21D;51290;45.060;38.948;2023-06-14T04:43:41;22.69;79.49
64833;HTU21D;51290;45.060;38.948;2023-06-14T04:46:09;22.71;79.51
64833;HTU21D;51290;45.060;38.948;2023-06-14T04:48:38;22.81;79.50
64833;HTU21D;51290;45.060;38.948;2023-06-14T04:51:09;22.87;79.35
64833;HTU21D;51290;45.060;38.948;2023-06-14T04:53:35;22.92;79.21
64833;HTU21D;51290;45.060;38.948;2023-06-14T04:56:02;22.94;79.08
64833;HTU21D;51290;45.060;38.948;2023-06-14T04:58:30;22.91;78.88
64833;HTU21D;51290;45.060;38.948;2023-06-14T05:00:57;22.85;78.89
64833;HTU21D;51290;45.060;38.948;2023-06-14T05:03:25;22.87;79.17
64833;HTU21D;51290;45.060;38.948;2023-06-14T05:05:52;22.98;79.21
64833;HTU21D;51290;45.060;38.948;2023-06-14T05:08:21;23.10;78.94
64833;HTU21D;51290;45.060;38.948;2023-06-14T05:10:50;23.20;78.70
64833;HTU21D;51290;45.060;38.948;2023-06-14T05:13:22;23.31;78.59
64833;HTU21D;51290;45.060;38.948;2023-06-14T05:15:49;23.47;78.53
64833;HTU21D;51290;45.060;38.948;2023-06-14T05:18:15;23.65;78.30
64833;HTU21D;51290;45.060;38.948;2023-06-14T05:20:41;23.77;77.97
64833;HTU21D;51290;45.060;38.948;2023-06-14T05:23:08;23.84;77.87
64833;HTU21D;51290;45.060;38.948;2023-06-14T05:25:34;23.92;77.89
64833;HTU21D;51290;45.060;38.948;2023-06-14T05:28:01;24.05;77.85
64833;HTU21D;51290;45.060;38.948;2023-06-14T05:30:27;24.23;77.59
64833;HTU21D;51290;45.060;38.948;2023-06-14T05:32:55;24.36;77.15
64833;HTU21D;51290;45.060;38.948;2023-06-14T05:35:21;24.47;76.79
64833;HTU21D;51290;45.060;38.948;2023-06-14T05:37:48;24.54;76.54
64833;HTU21D;51290;45.060;38.948;2023-06-14T05:40:15;24.53;76.28
64833;HTU21D;51290;45.060;38.948;2023-06-14T05:42:42;24.43;76.02
64833;HTU21D;51290;45.060;38.948;2023-06-14T05:45:08;24.28;75.92
64833;HTU21D;51290;45.060;38.948;2023-06-14T05:47:34;24.12;76.08
64833;HTU21D;51290;45.060;38.948;2023-06-14T05:50:00;23.99;76.28
64833;HTU21D;51290;45.060;38.948;2023-06-14T05:52:27;23.87;76.47
64833;HTU21D;51290;45.060;38.948;2023-06-14T05:54:53;23.84;76.63
64833;HTU21D;51290;45.060;38.948;2023-06-14T05:57:20;23.82;76.65
64833;HTU21D;51290;45.060;38.948;2023-06-14T05:59:46;23.77;76.64
64833;HTU21D;51290;45.060;38.948;2023-06-14T06:02:12;23.75;76.50
64833;HTU21D;51290;45.060;38.948;2023-06-14T06:04:38;23.72;76.58
64833;HTU21D;51290;45.060;38.948;2023-06-14T06:07:04;23.74;76.70
64833;HTU21D;51290;45.060;38.948;2023-06-14T06:09:31;23.76;76.66
64833;HTU21D;51290;45.060;38.948;2023-06-14T06:11:57;23.82;76.65
64833;HTU21D;51290;45.060;38.948;2023-06-14T06:14:23;23.92;76.49
64833;HTU21D;51290;45.060;38.948;2023-06-14T06:16:49;24.03;76.28
64833;HTU21D;51290;45.060;38.948;2023-06-14T06:19:15;24.13;76.02
64833;HTU21D;51290;45.060;38.948;2023-06-14T06:21:41;24.23;75.73
64833;HTU21D;51290;45.060;38.948;2023-06-14T06:24:07;24.31;75.47
64833;HTU21D;51290;45.060;38.948;2023-06-14T06:26:33;24.41;75.33
64833;HTU21D;51290;45.060;38.948;2023-06-14T06:28:59;24.48;74.89
64833;HTU21D;51290;45.060;38.948;2023-06-14T06:31:25;24.54;74.79
64833;HTU21D;51290;45.060;38.948;2023-06-14T06:33:54;24.59;74.68
64833;HTU21D;51290;45.060;38.948;2023-06-14T06:36:20;24.65;74.58
64833;HTU21D;51290;45.060;38.948;2023-06-14T06:38:47;24.72;74.47
64833;HTU21D;51290;45.060;38.948;2023-06-14T06:41:13;24.86;74.40
64833;HTU21D;51290;45.060;38.948;2023-06-14T06:44:11;25.05;74.15
64833;HTU21D;51290;45.060;38.948;2023-06-14T06:46:39;25.21;73.86
64833;HTU21D;51290;45.060;38.948;2023-06-14T06:49:07;25.38;73.54
64833;HTU21D;51290;45.060;38.948;2023-06-14T06:51:35;25.52;73.09
64833;HTU21D;51290;45.060;38.948;2023-06-14T06:54:02;25.68;72.93
64833;HTU21D;51290;45.060;38.948;2023-06-14T06:56:28;25.87;72.78
64833;HTU21D;51290;45.060;38.948;2023-06-14T06:58:54;26.03;72.39
64833;HTU21D;51290;45.060;38.948;2023-06-14T07:01:21;26.13;71.99
64833;HTU21D;51290;45.060;38.948;2023-06-14T08:44:45;29.38;58.52
64833;HTU21D;51290;45.060;38.948;2023-06-14T08:47:12;29.47;59.00
64833;HTU21D;51290;45.060;38.948;2023-06-14T08:49:48;29.50;59.13
64833;HTU21D;51290;45.060;38.948;2023-06-14T08:52:29;29.47;59.47
64833;HTU21D;51290;45.060;38.948;2023-06-14T08:54:59;29.43;59.77
64833;HTU21D;51290;45.060;38.948;2023-06-14T08:57:26;29.38;59.96
64833;HTU21D;51290;45.060;38.948;2023-06-14T08:59:56;29.30;59.88
64833;HTU21D;51290;45.060;38.948;2023-06-14T09:02:32;29.18;59.92
64833;HTU21D;51290;45.060;38.948;2023-06-14T09:05:01;29.06;59.96
64833;HTU21D;51290;45.060;38.948;2023-06-14T09:07:29;28.91;59.81
64833;HTU21D;51290;45.060;38.948;2023-06-14T09:10:09;28.75;59.98
64833;HTU21D;51290;45.060;38.948;2023-06-14T09:12:36;28.65;60.08
64833;HTU21D;51290;45.060;38.948;2023-06-14T09:15:08;28.60;60.22
64833;HTU21D;51290;45.060;38.948;2023-06-14T09:17:38;28.57;60.48
64833;HTU21D;51290;45.060;38.948;2023-06-14T09:20:05;28.61;60.72
64833;HTU21D;51290;45.060;38.948;2023-06-14T09:22:33;28.64;60.44
64833;HTU21D;51290;45.060;38.948;2023-06-14T09:24:59;28.64;60.12
64833;HTU21D;51290;45.060;38.948;2023-06-14T09:27:32;28.59;59.98
64833;HTU21D;51290;45.060;38.948;2023-06-14T09:29:58;28.54;59.92
64833;HTU21D;51290;45.060;38.948;2023-06-14T09:32:25;28.49;59.99
64833;HTU21D;51290;45.060;38.948;2023-06-14T09:35:15;28.53;60.16
64833;HTU21D;51290;45.060;38.948;2023-06-14T09:37:43;28.46;59.78
64833;HTU21D;51290;45.060;38.948;2023-06-14T09:40:09;28.46;59.83
64833;HTU21D;51290;45.060;38.948;2023-06-14T09:42:36;28.44;59.75
64833;HTU21D;51290;45.060;38.948;2023-06-14T09:45:03;28.44;59.73
64833;HTU21D;51290;45.060;38.948;2023-06-14T09:47:30;28.43;59.57
64833;HTU21D;51290;45.060;38.948;2023-06-14T09:49:56;28.42;59.87
64833;HTU21D;51290;45.060;38.948;2023-06-14T09:52:24;28.46;59.96
64833;HTU21D;51290;45.060;38.948;2023-06-14T09:54:52;28.52;59.93
64833;HTU21D;51290;45.060;38.948;2023-06-14T09:57:23;28.58;59.83
64833;HTU21D;51290;45.060;38.948;2023-06-14T10:00:00;28.64;59.81
64833;HTU21D;51290;45.060;38.948;2023-06-14T10:02:38;28.70;59.45
64833;HTU21D;51290;45.060;38.948;2023-06-14T10:05:06;28.70;59.28
64833;HTU21D;51290;45.060;38.948;2023-06-14T10:08:01;28.65;59.48
64833;HTU21D;51290;45.060;38.948;2023-06-14T10:10:32;28.65;59.40
64833;HTU21D;51290;45.060;38.948;2023-06-14T10:12:58;28.62;59.49
64833;HTU21D;51290;45.060;38.948;2023-06-14T10:15:54;28.65;59.73
64833;HTU21D;51290;45.060;38.948;2023-06-14T10:18:28;28.72;59.77
64833;HTU21D;51290;45.060;38.948;2023-06-14T10:24:05;29.04;59.70
64833;HTU21D;51290;45.060;38.948;2023-06-14T10:26:32;29.13;59.29
64833;HTU21D;51290;45.060;38.948;2023-06-14T10:29:01;29.21;59.31
64833;HTU21D;51290;45.060;38.948;2023-06-14T10:31:41;29.35;59.16
64833;HTU21D;51290;45.060;38.948;2023-06-14T10:34:08;29.42;59.09
64833;HTU21D;51290;45.060;38.948;2023-06-14T10:39:39;29.33;58.37
64833;HTU21D;51290;45.060;38.948;2023-06-14T10:42:09;29.22;58.64
64833;HTU21D;51290;45.060;38.948;2023-06-14T10:47:32;29.03;58.90
64833;HTU21D;51290;45.060;38.948;2023-06-14T10:50:08;28.95;58.98
64833;HTU21D;51290;45.060;38.948;2023-06-14T10:52:43;28.91;59.15
64833;HTU21D;51290;45.060;38.948;2023-06-14T10:57:40;28.72;58.98
64833;HTU21D;51290;45.060;38.948;2023-06-14T11:00:07;28.61;59.09
64833;HTU21D;51290;45.060;38.948;2023-06-14T11:02:51;28.60;59.38
64833;HTU21D;51290;45.060;38.948;2023-06-14T11:05:27;28.69;59.61
64833;HTU21D;51290;45.060;38.948;2023-06-14T11:10:54;29.18;59.27
64833;HTU21D;51290;45.060;38.948;2023-06-14T11:13:26;29.43;58.74
64833;HTU21D;51290;45.060;38.948;2023-06-14T11:15:52;29.64;58.45
64833;HTU21D;51290;45.060;38.948;2023-06-14T11:18:21;29.88;58.08
64833;HTU21D;51290;45.060;38.948;2023-06-14T11:20:50;30.11;57.53
64833;HTU21D;51290;45.060;38.948;2023-06-14T11:23:16;30.23;57.22
64833;HTU21D;51290;45.060;38.948;2023-06-14T11:25:42;30.32;56.91
64833;HTU21D;51290;45.060;38.948;2023-06-14T11:28:10;30.39;56.56
64833;HTU21D;51290;45.060;38.948;2023-06-14T11:30:36;30.42;56.42
64833;HTU21D;51290;45.060;38.948;2023-06-14T11:33:02;30.46;56.29
64833;HTU21D;51290;45.060;38.948;2023-06-14T11:35:28;30.46;56.23
64833;HTU21D;51290;45.060;38.948;2023-06-14T11:37:55;30.44;56.13
64833;HTU21D;51290;45.060;38.948;2023-06-14T11:40:27;30.36;56.10
64833;HTU21D;51290;45.060;38.948;2023-06-14T11:42:59;30.27;56.16
64833;HTU21D;51290;45.060;38.948;2023-06-14T11:45:27;30.17;56.32
64833;HTU21D;51290;45.060;38.948;2023-06-14T11:48:00;30.08;56.51
64833;HTU21D;51290;45.060;38.948;2023-06-14T11:50:31;29.97;56.63
64833;HTU21D;51290;45.060;38.948;2023-06-14T11:53:00;29.83;56.80
64833;HTU21D;51290;45.060;38.948;2023-06-14T11:55:38;29.70;57.01
64833;HTU21D;51290;45.060;38.948;2023-06-14T11:58:06;29.52;57.29
64833;HTU21D;51290;45.060;38.948;2023-06-14T12:00:34;29.39;57.55
64833;HTU21D;51290;45.060;38.948;2023-06-14T12:03:00;29.31;57.64
64833;HTU21D;51290;45.060;38.948;2023-06-14T12:05:27;29.27;57.77
64833;HTU21D;51290;45.060;38.948;2023-06-14T12:08:10;29.26;57.93
64833;HTU21D;51290;45.060;38.948;2023-06-14T12:10:45;29.30;57.90
64833;HTU21D;51290;45.060;38.948;2023-06-14T12:13:11;29.31;57.75
64833;HTU21D;51290;45.060;38.948;2023-06-14T12:15:56;29.31;57.80
64833;HTU21D;51290;45.060;38.948;2023-06-14T12:18:35;29.41;57.74
64833;HTU21D;51290;45.060;38.948;2023-06-14T12:21:06;29.51;57.61
64833;HTU21D;51290;45.060;38.948;2023-06-14T12:23:48;29.57;57.46
64833;HTU21D;51290;45.060;38.948;2023-06-14T12:26:19;29.51;57.52
64833;HTU21D;51290;45.060;38.948;2023-06-14T12:28:46;29.45;57.61
64833;HTU21D;51290;45.060;38.948;2023-06-14T12:31:15;29.34;57.51
64833;HTU21D;51290;45.060;38.948;2023-06-14T12:33:42;29.18;57.64
64833;HTU21D;51290;45.060;38.948;2023-06-14T12:36:09;29.01;57.71
64833;HTU21D;51290;45.060;38.948;2023-06-14T12:38:38;28.80;57.52
64833;HTU21D;51290;45.060;38.948;2023-06-14T12:41:04;28.58;57.56
64833;HTU21D;51290;45.060;38.948;2023-06-14T12:43:31;28.41;58.00
64833;HTU21D;51290;45.060;38.948;2023-06-14T12:45:57;28.35;58.33
64833;HTU21D;51290;45.060;38.948;2023-06-14T12:48:23;28.35;58.54
64833;HTU21D;51290;45.060;38.948;2023-06-14T12:50:49;28.43;58.58
64833;HTU21D;51290;45.060;38.948;2023-06-14T12:53:15;28.45;58.41
64833;HTU21D;51290;45.060;38.948;2023-06-14T12:55:42;28.38;58.35
64833;HTU21D;51290;45.060;38.948;2023-06-14T12:58:08;28.26;58.39
64833;HTU21D;51290;45.060;38.948;2023-06-14T13:00:35;28.12;58.72
64833;HTU21D;51290;45.060;38.948;2023-06-14T13:03:01;27.97;59.04
64833;HTU21D;51290;45.060;38.948;2023-06-14T13:05:27;27.84;59.38
64833;HTU21D;51290;45.060;38.948;2023-06-14T13:07:53;27.67;59.59
64833;HTU21D;51290;45.060;38.948;2023-06-14T13:10:19;27.42;59.64
64833;HTU21D;51290;45.060;38.948;2023-06-14T13:12:45;27.13;60.12
64833;HTU21D;51290;45.060;38.948;2023-06-14T13:15:11;26.93;60.60
64833;HTU21D;51290;45.060;38.948;2023-06-14T13:17:37;26.78;60.97
64833;HTU21D;51290;45.060;38.948;2023-06-14T13:20:08;26.63;61.39
64833;HTU21D;51290;45.060;38.948;2023-06-14T13:22:34;26.57;61.79
64833;HTU21D;51290;45.060;38.948;2023-06-14T13:25:01;26.53;61.99
64833;HTU21D;51290;45.060;38.948;2023-06-14T13:27:27;26.50;62.12
64833;HTU21D;51290;45.060;38.948;2023-06-14T13:29:56;26.43;62.32
64833;HTU21D;51290;45.060;38.948;2023-06-14T13:32:23;26.39;62.47
64833;HTU21D;51290;45.060;38.948;2023-06-14T13:34:49;26.37;62.66
64833;HTU21D;51290;45.060;38.948;2023-06-14T13:37:15;26.34;62.80
64833;HTU21D;51290;45.060;38.948;2023-06-14T13:39:41;26.31;62.95
64833;HTU21D;51290;45.060;38.948;2023-06-14T13:42:07;26.25;63.06
64833;HTU21D;51290;45.060;38.948;2023-06-14T13:44:33;26.15;63.26
64833;HTU21D;51290;45.060;38.948;2023-06-14T13:47:00;26.04;63.49
64833;HTU21D;51290;45.060;38.948;2023-06-14T13:49:26;25.94;63.71
64833;HTU21D;51290;45.060;38.948;2023-06-14T13:51:52;25.82;63.92
64833;HTU21D;51290;45.060;38.948;2023-06-14T13:54:21;25.68;64.22
64833;HTU21D;51290;45.060;38.948;2023-06-14T13:56:47;25.53;64.53
64833;HTU21D;51290;45.060;38.948;2023-06-14T13:59:13;25.42;64.82
64833;HTU21D;51290;45.060;38.948;2023-06-14T14:01:39;25.31;65.03
64833;HTU21D;51290;45.060;38.948;2023-06-14T14:04:05;25.23;65.20
64833;HTU21D;51290;45.060;38.948;2023-06-14T14:06:31;25.17;65.33
64833;HTU21D;51290;45.060;38.948;2023-06-14T14:08:57;25.13;65.37
64833;HTU21D;51290;45.060;38.948;2023-06-14T14:11:23;25.05;65.41
64833;HTU21D;51290;45.060;38.948;2023-06-14T14:13:49;24.98;65.60
64833;HTU21D;51290;45.060;38.948;2023-06-14T14:16:19;24.92;65.86
64833;HTU21D;51290;45.060;38.948;2023-06-14T14:18:48;24.92;65.99
64833;HTU21D;51290;45.060;38.948;2023-06-14T14:21:14;24.90;66.17
64833;HTU21D;51290;45.060;38.948;2023-06-14T14:23:40;24.90;66.72
64833;HTU21D;51290;45.060;38.948;2023-06-14T14:26:06;24.88;66.86
64833;HTU21D;51290;45.060;38.948;2023-06-14T14:28:32;24.86;67.07
64833;HTU21D;51290;45.060;38.948;2023-06-14T14:30:59;24.79;67.04
64833;HTU21D;51290;45.060;38.948;2023-06-14T14:33:25;24.76;67.28
64833;HTU21D;51290;45.060;38.948;2023-06-14T14:35:51;24.76;67.30
64833;HTU21D;51290;45.060;38.948;2023-06-14T14:38:19;24.83;67.32
64833;HTU21D;51290;45.060;38.948;2023-06-14T14:40:45;24.87;67.30
64833;HTU21D;51290;45.060;38.948;2023-06-14T14:43:12;24.93;67.20
64833;HTU21D;51290;45.060;38.948;2023-06-14T14:45:38;24.99;67.17
64833;HTU21D;51290;45.060;38.948;2023-06-14T14:48:05;25.04;67.15
64833;HTU21D;51290;45.060;38.948;2023-06-14T14:51:00;25.05;66.99
64833;HTU21D;51290;45.060;38.948;2023-06-14T14:53:26;25.05;66.98
64833;HTU21D;51290;45.060;38.948;2023-06-14T14:55:52;25.03;67.02
64833;HTU21D;51290;45.060;38.948;2023-06-14T14:58:18;25.00;67.11
64833;HTU21D;51290;45.060;38.948;2023-06-14T15:00:45;24.94;67.20
64833;HTU21D;51290;45.060;38.948;2023-06-14T15:03:11;24.89;67.28
64833;HTU21D;51290;45.060;38.948;2023-06-14T15:05:37;24.85;67.42
64833;HTU21D;51290;45.060;38.948;2023-06-14T15:08:04;24.84;67.49
64833;HTU21D;51290;45.060;38.948;2023-06-14T15:10:36;24.80;67.51
64833;HTU21D;51290;45.060;38.948;2023-06-14T15:13:02;24.78;67.55
64833;HTU21D;51290;45.060;38.948;2023-06-14T15:15:28;24.72;67.59
64833;HTU21D;51290;45.060;38.948;2023-06-14T15:17:54;24.66;67.61
64833;HTU21D;51290;45.060;38.948;2023-06-14T15:20:20;24.62;67.84
64833;HTU21D;51290;45.060;38.948;2023-06-14T15:22:48;24.58;67.89
64833;HTU21D;51290;45.060;38.948;2023-06-14T15:25:14;24.57;67.91
64833;HTU21D;51290;45.060;38.948;2023-06-14T15:27:40;24.54;67.89
64833;HTU21D;51290;45.060;38.948;2023-06-14T15:30:07;24.51;67.91
64833;HTU21D;51290;45.060;38.948;2023-06-14T15:32:33;24.51;68.01
64833;HTU21D;51290;45.060;38.948;2023-06-14T15:34:59;24.49;68.10
64833;HTU21D;51290;45.060;38.948;2023-06-14T15:37:25;24.48;68.13
64833;HTU21D;51290;45.060;38.948;2023-06-14T15:39:51;24.46;68.10
64833;HTU21D;51290;45.060;38.948;2023-06-14T15:42:17;24.46;68.09
64833;HTU21D;51290;45.060;38.948;2023-06-14T15:44:43;24.43;68.12
64833;HTU21D;51290;45.060;38.948;2023-06-14T15:47:09;24.39;68.21
64833;HTU21D;51290;45.060;38.948;2023-06-14T15:49:35;24.35;68.30
64833;HTU21D;51290;45.060;38.948;2023-06-14T15:52:02;24.33;68.38
64833;HTU21D;51290;45.060;38.948;2023-06-14T15:54:28;24.31;68.47
64833;HTU21D;51290;45.060;38.948;2023-06-14T15:56:54;24.31;68.46
64833;HTU21D;51290;45.060;38.948;2023-06-14T15:59:20;24.29;68.48
64833;HTU21D;51290;45.060;38.948;2023-06-14T16:01:46;24.28;68.52
64833;HTU21D;51290;45.060;38.948;2023-06-14T16:04:12;24.23;68.68
64833;HTU21D;51290;45.060;38.948;2023-06-14T16:06:38;24.18;68.73
64833;HTU21D;51290;45.060;38.948;2023-06-14T16:09:04;24.14;68.81
64833;HTU21D;51290;45.060;38.948;2023-06-14T16:11:30;24.10;68.87
64833;HTU21D;51290;45.060;38.948;2023-06-14T16:13:56;24.06;68.92
64833;HTU21D;51290;45.060;38.948;2023-06-14T16:16:22;24.04;68.97
64833;HTU21D;51290;45.060;38.948;2023-06-14T16:18:49;24.02;69.00
64833;HTU21D;51290;45.060;38.948;2023-06-14T16:21:15;23.99;69.00
64833;HTU21D;51290;45.060;38.948;2023-06-14T16:23:41;23.96;69.07
64833;HTU21D;51290;45.060;38.948;2023-06-14T16:26:10;23.94;69.10
64833;HTU21D;51290;45.060;38.948;2023-06-14T16:28:39;23.90;69.15
64833;HTU21D;51290;45.060;38.948;2023-06-14T16:31:10;23.89;69.18
64833;HTU21D;51290;45.060;38.948;2023-06-14T16:33:38;23.87;69.25
64833;HTU21D;51290;45.060;38.948;2023-06-14T16:36:04;23.86;69.29
64833;HTU21D;51290;45.060;38.948;2023-06-14T16:38:30;23.85;69.32
64833;HTU21D;51290;45.060;38.948;2023-06-14T16:40:56;23.83;69.33
64833;HTU21D;51290;45.060;38.948;2023-06-14T16:43:22;23.83;69.34
64833;HTU21D;51290;45.060;38.948;2023-06-14T16:45:56;23.82;69.38
64833;HTU21D;51290;45.060;38.948;2023-06-14T16:48:22;23.81;69.36
64833;HTU21D;51290;45.060;38.948;2023-06-14T16:50:48;23.81;69.37
64833;HTU21D;51290;45.060;38.948;2023-06-14T16:53:14;23.80;69.37
64833;HTU21D;51290;45.060;38.948;2023-06-14T16:55:40;23.79;69.38
64833;HTU21D;51290;45.060;38.948;2023-06-14T16:58:07;23.75;69.40
64833;HTU21D;51290;45.060;38.948;2023-06-14T17:00:33;23.73;69.42
64833;HTU21D;51290;45.060;38.948;2023-06-14T17:02:59;23.69;69.57
64833;HTU21D;51290;45.060;38.948;2023-06-14T17:05:26;23.67;69.88